createdAt,value
2019-02-25T00:00:12.603Z,100.00
2019-02-25T00:02:43.991Z,100.00
2019-02-25T00:05:13.772Z,100.00
2019-02-25T00:07:43.603Z,100.00
2019-02-25T00:10:14.360Z,100.00
2019-02-25T00:12:44.110Z,100.00
2019-02-25T00:15:13.875Z,100.00
2019-02-25T00:17:43.623Z,100.00
2019-02-25T00:20:14.486Z,100.00
2019-02-25T00:22:44.170Z,100.00
2019-02-25T00:25:14.081Z,100.00
2019-02-25T00:27:43.831Z,100.00
2019-02-25T00:30:13.666Z,100.00
2019-02-25T00:32:43.868Z,100.00
2019-02-25T00:35:13.648Z,100.00
2019-02-25T00:37:43.512Z,100.00
2019-02-25T00:40:13.936Z,100.00
2019-02-25T00:42:44.131Z,100.00
2019-02-25T00:45:13.905Z,100.00
2019-02-25T00:47:43.752Z,100.00
2019-02-25T00:50:13.905Z,100.00
2019-02-25T00:52:43.712Z,100.00
2019-02-25T00:55:13.866Z,100.00
2019-02-25T00:57:45.639Z,100.00
2019-02-25T01:00:16.301Z,100.00
2019-02-25T01:02:46.151Z,100.00
2019-02-25T01:05:16.675Z,100.00
2019-02-25T01:07:46.740Z,100.00
2019-02-25T01:10:17.535Z,100.00
2019-02-25T01:12:47.782Z,100.00
2019-02-25T01:15:19.015Z,100.00
2019-02-25T01:17:48.771Z,100.00
2019-02-25T01:20:19.534Z,100.00
2019-02-25T01:22:49.487Z,100.00
2019-02-25T01:25:19.244Z,100.00
2019-02-25T01:27:49.245Z,100.00
2019-02-25T01:30:19.869Z,100.00
2019-02-25T01:32:49.628Z,100.00
2019-02-25T01:35:19.432Z,100.00
2019-02-25T01:37:49.200Z,100.00
2019-02-25T01:40:18.961Z,100.00
2019-02-25T01:42:48.717Z,100.00
2019-02-25T01:45:18.524Z,100.00
2019-02-25T01:47:48.549Z,100.00
2019-02-25T01:50:18.590Z,100.00
2019-02-25T01:52:48.282Z,100.00
2019-02-25T01:55:18.132Z,100.00
2019-02-25T01:57:49.303Z,100.00
2019-02-25T02:00:19.118Z,100.00
2019-02-25T02:02:48.801Z,100.00
2019-02-25T02:05:19.529Z,100.00
2019-02-25T02:07:49.266Z,100.00
2019-02-25T02:10:19.799Z,100.00
2019-02-25T02:12:49.547Z,100.00
2019-02-25T02:15:19.379Z,100.00
2019-02-25T02:17:49.130Z,100.00
2019-02-25T02:20:19.027Z,100.00
2019-02-25T02:22:48.766Z,100.00
2019-02-25T02:25:18.530Z,100.00
2019-02-25T02:27:48.276Z,100.00
2019-02-25T02:30:18.774Z,100.00
2019-02-25T02:32:48.541Z,100.00
2019-02-25T02:35:18.710Z,100.00
2019-02-25T02:37:48.490Z,100.00
2019-02-25T02:40:18.335Z,100.00
2019-02-25T02:42:50.732Z,100.00
2019-02-25T02:45:30.290Z,100.00
2019-02-25T02:48:09.177Z,100.00
2019-02-25T02:50:38.925Z,100.00
2019-02-25T02:53:08.718Z,100.00
2019-02-25T02:55:38.535Z,100.00
2019-02-25T02:58:08.231Z,100.00
2019-02-25T03:00:38.001Z,100.00
2019-02-25T03:03:09.168Z,100.00
2019-02-25T03:05:38.947Z,100.00
2019-02-25T03:08:08.644Z,100.00
2019-02-25T03:10:38.393Z,100.00
2019-02-25T03:13:08.937Z,100.00
2019-02-25T03:15:38.679Z,100.00
2019-02-25T03:18:08.469Z,100.00
2019-02-25T03:20:38.165Z,100.00
2019-02-25T03:23:07.920Z,100.00
2019-02-25T03:25:37.602Z,100.00
2019-02-25T03:28:07.340Z,100.00
2019-02-25T03:30:37.038Z,100.00
2019-02-25T03:33:06.726Z,100.00
2019-02-25T03:35:36.485Z,100.00
2019-02-25T03:38:06.264Z,100.00
2019-02-25T03:40:36.025Z,100.00
2019-02-25T03:43:06.670Z,100.00
2019-02-25T03:45:36.453Z,100.00
2019-02-25T03:48:06.205Z,100.00
2019-02-25T03:50:36.864Z,100.00
2019-02-25T03:53:06.607Z,100.00
2019-02-25T03:55:36.785Z,100.00
2019-02-25T03:58:06.530Z,100.00
2019-02-25T04:00:36.665Z,100.00
2019-02-25T04:03:06.868Z,100.00
2019-02-25T04:05:36.555Z,100.00
2019-02-25T04:08:06.332Z,100.00
2019-02-25T04:10:36.001Z,100.00
2019-02-25T04:13:06.111Z,100.00
2019-02-25T04:15:39.589Z,100.00
2019-02-25T04:18:09.354Z,100.00
2019-02-25T04:20:39.037Z,100.00
2019-02-25T04:23:09.066Z,100.00
2019-02-25T04:25:39.153Z,100.00
2019-02-25T04:28:09.228Z,100.00
2019-02-25T04:30:38.979Z,100.00
2019-02-25T04:33:08.651Z,100.00
2019-02-25T04:35:38.467Z,100.00
2019-02-25T04:38:08.114Z,100.00
2019-02-25T04:40:37.804Z,100.00
2019-02-25T04:43:08.622Z,100.00
2019-02-25T04:45:38.702Z,100.00
2019-02-25T04:48:08.812Z,100.00
2019-02-25T04:50:39.639Z,100.00
2019-02-25T04:53:09.340Z,100.00
2019-02-25T04:55:38.996Z,100.00
2019-02-25T04:58:09.243Z,100.00
2019-02-25T05:00:38.968Z,100.00
2019-02-25T05:03:08.649Z,100.00
2019-02-25T05:05:38.762Z,100.00
2019-02-25T05:08:08.740Z,100.00
2019-02-25T05:10:38.425Z,100.00
2019-02-25T05:13:08.383Z,100.00
2019-02-25T05:15:38.181Z,100.00
2019-02-25T05:18:07.976Z,100.00
2019-02-25T05:20:37.648Z,100.00
2019-02-25T05:23:08.299Z,100.00
2019-02-25T05:25:38.045Z,100.00
2019-02-25T05:28:07.805Z,100.00
2019-02-25T05:30:37.521Z,100.00
2019-02-25T05:33:07.623Z,100.00
2019-02-25T05:35:37.309Z,100.00
2019-02-25T05:38:07.024Z,100.00
2019-02-25T05:40:36.794Z,100.00
2019-02-25T05:43:06.565Z,100.00
2019-02-25T05:45:36.303Z,100.00
2019-02-25T05:48:06.049Z,100.00
2019-02-25T05:50:35.836Z,100.00
2019-02-25T05:53:06.025Z,100.00
2019-02-25T05:55:36.096Z,100.00
2019-02-25T05:58:06.158Z,100.00
2019-02-25T06:00:36.448Z,100.00
2019-02-25T06:03:06.196Z,100.00
2019-02-25T06:05:35.888Z,100.00
2019-02-25T06:08:05.633Z,100.00
2019-02-25T06:10:35.399Z,100.00
2019-02-25T06:13:05.208Z,100.00
2019-02-25T06:15:34.825Z,100.00
2019-02-25T06:18:04.862Z,100.00
2019-02-25T06:20:34.544Z,100.00
2019-02-25T06:23:04.384Z,100.00
2019-02-25T06:25:34.083Z,100.00
2019-02-25T06:28:03.765Z,100.00
2019-02-25T06:30:33.519Z,100.00
2019-02-25T06:33:03.280Z,100.00
2019-02-25T06:35:32.940Z,100.00
2019-02-25T06:38:02.632Z,100.00
2019-02-25T06:40:32.465Z,100.00
2019-02-25T06:43:02.234Z,100.00
2019-02-25T06:45:33.165Z,100.00
2019-02-25T06:48:02.841Z,100.00
2019-02-25T06:50:32.590Z,100.00
2019-02-25T06:53:02.262Z,100.00
2019-02-25T06:55:32.248Z,100.00
2019-02-25T06:58:02.008Z,100.00
2019-02-25T07:00:32.025Z,100.00
2019-02-25T07:03:01.720Z,100.00
2019-02-25T07:05:47.932Z,100.00
2019-02-25T07:08:40.092Z,100.00
2019-02-25T07:11:33.948Z,100.00
2019-02-25T07:14:13.918Z,100.00
2019-02-25T07:17:03.716Z,100.00
2019-02-25T07:19:54.187Z,100.00
2019-02-25T07:22:41.626Z,100.00
2019-02-25T07:25:39.955Z,100.00
2019-02-25T07:28:33.450Z,100.00
2019-02-25T07:31:16.588Z,100.00
2019-02-25T07:34:02.147Z,100.00
2019-02-25T07:36:41.544Z,100.00
2019-02-25T07:39:25.841Z,100.00
2019-02-25T07:42:12.963Z,100.00
2019-02-25T07:45:17.087Z,100.00
2019-02-25T07:47:59.193Z,100.00
2019-02-25T07:50:51.444Z,100.00
2019-02-25T07:53:49.133Z,100.00
2019-02-25T07:56:28.725Z,100.00
2019-02-25T07:59:16.252Z,100.00
2019-02-25T08:01:54.003Z,100.00
2019-02-25T08:04:32.227Z,100.00
2019-02-25T08:07:20.902Z,100.00
2019-02-25T08:09:58.435Z,100.00
2019-02-25T08:12:36.710Z,100.00
2019-02-25T08:15:12.581Z,100.00
2019-02-25T08:18:00.205Z,100.00
2019-02-25T08:20:46.531Z,100.00
2019-02-25T08:23:44.340Z,100.00
2019-02-25T08:26:21.256Z,100.00
2019-02-25T08:29:21.741Z,100.00
2019-02-25T08:32:07.687Z,100.00
2019-02-25T08:34:55.528Z,100.00
2019-02-25T08:37:52.034Z,100.00
2019-02-25T08:41:20.410Z,100.00
2019-02-25T08:44:01.623Z,100.00
2019-02-25T08:46:48.323Z,100.00
2019-02-25T08:49:22.025Z,100.00
2019-02-25T08:51:51.777Z,100.00
2019-02-25T08:54:21.617Z,100.00
2019-02-25T08:56:51.365Z,100.00
2019-02-25T08:59:21.465Z,100.00
2019-02-25T09:01:51.234Z,100.00
2019-02-25T09:04:20.909Z,100.00
2019-02-25T09:06:50.656Z,100.00
2019-02-25T09:09:20.744Z,100.00
2019-02-25T09:11:50.405Z,100.00
2019-02-25T09:14:20.162Z,100.00
2019-02-25T09:16:49.920Z,100.00
2019-02-25T09:19:19.584Z,100.00
2019-02-25T09:21:49.267Z,100.00
2019-02-25T09:24:19.038Z,100.00
2019-02-25T09:26:48.784Z,100.00
2019-02-25T09:29:18.566Z,100.00
2019-02-25T09:31:48.620Z,100.00
2019-02-25T09:34:18.376Z,100.00
2019-02-25T09:36:48.201Z,100.00
2019-02-25T09:39:17.956Z,100.00
2019-02-25T09:41:47.714Z,100.00
2019-02-25T09:44:17.454Z,100.00
2019-02-25T09:46:47.135Z,100.00
2019-02-25T09:49:17.210Z,100.00
2019-02-25T09:51:46.965Z,100.00
2019-02-25T09:54:16.717Z,100.00
2019-02-25T09:56:46.391Z,100.00
2019-02-25T09:59:16.057Z,100.00
2019-02-25T10:01:45.816Z,100.00
2019-02-25T10:04:15.485Z,100.00
2019-02-25T10:06:45.247Z,100.00
2019-02-25T10:09:14.920Z,100.00
2019-02-25T10:11:44.748Z,100.00
2019-02-25T10:14:14.488Z,100.00
2019-02-25T10:16:44.235Z,94.08
2019-02-25T10:19:13.923Z,94.18
2019-02-25T10:21:43.696Z,89.60
2019-02-25T10:24:13.464Z,65.89
2019-02-25T10:26:43.254Z,66.01
2019-02-25T10:29:13.039Z,64.81
2019-02-25T10:31:43.791Z,63.78
2019-02-25T10:34:13.605Z,66.50
2019-02-25T10:36:44.022Z,54.65
2019-02-25T10:39:15.435Z,53.64
2019-02-25T10:41:46.080Z,52.34
2019-02-25T10:44:16.045Z,51.14
2019-02-25T10:46:47.018Z,49.40
2019-02-25T10:49:17.210Z,41.29
2019-02-25T10:51:46.961Z,37.90
2019-02-25T10:54:17.009Z,36.02
2019-02-25T10:56:58.647Z,33.10
2019-02-25T10:59:29.916Z,32.26
2019-02-25T11:01:59.762Z,32.25
2019-02-25T11:04:29.613Z,29.21
2019-02-25T11:07:00.806Z,28.06
2019-02-25T11:09:48.353Z,27.42
2019-02-25T11:12:30.090Z,27.19
2019-02-25T11:15:01.555Z,26.57
2019-02-25T11:17:32.182Z,25.71
2019-02-25T11:20:03.711Z,25.42
2019-02-25T11:22:33.522Z,25.25
2019-02-25T11:25:03.331Z,24.07
2019-02-25T11:27:33.628Z,24.06
2019-02-25T11:30:05.391Z,23.42
2019-02-25T11:32:35.310Z,22.72
2019-02-25T11:35:06.378Z,22.65
2019-02-25T11:37:37.042Z,22.12
2019-02-25T11:40:07.952Z,21.88
2019-02-25T11:42:37.926Z,20.21
2019-02-25T11:45:09.720Z,20.54
2019-02-25T11:47:39.462Z,21.61
2019-02-25T11:50:11.402Z,21.12
2019-02-25T11:52:41.136Z,20.75
2019-02-25T11:55:11.246Z,20.90
2019-02-25T11:57:42.330Z,18.97
2019-02-25T12:00:15.888Z,18.56
2019-02-25T12:02:45.768Z,18.36
2019-02-25T12:05:16.759Z,17.83
2019-02-25T12:07:47.067Z,18.13
2019-02-25T12:10:16.860Z,17.77
2019-02-25T12:12:46.685Z,17.00
2019-02-25T12:15:17.003Z,15.53
2019-02-25T12:17:46.678Z,14.69
2019-02-25T12:20:16.463Z,13.57
2019-02-25T12:22:46.269Z,13.60
2019-02-25T12:25:16.041Z,14.46
2019-02-25T12:27:45.854Z,13.17
2019-02-25T12:30:17.416Z,13.33
2019-02-25T12:32:47.184Z,13.47
2019-02-25T12:35:16.939Z,13.53
2019-02-25T12:37:46.712Z,13.83
2019-02-25T12:40:17.836Z,13.51
2019-02-25T12:42:47.611Z,13.10
2019-02-25T12:45:17.403Z,13.19
2019-02-25T12:47:47.078Z,13.27
2019-02-25T12:50:16.852Z,12.89
2019-02-25T12:52:46.544Z,12.89
2019-02-25T12:55:16.393Z,13.00
2019-02-25T12:57:47.347Z,13.07
2019-02-25T13:00:17.206Z,13.54
2019-02-25T13:02:47.273Z,13.62
2019-02-25T13:05:17.017Z,13.17
2019-02-25T13:07:46.764Z,12.87
